Time;durP1;ratioP1;P1;durP2;ratioP2;P2;SDS_P1;SDS_P2;PMS_P1;PMS_P2;Temp;Humidity;BMP_temperature;BMP_pressure;BME280_temperature;BME280_humidity;BME280_pressure;Samples;Min_cycle;Max_cycle;Signal;HPM_P1;HPM_P2
2021/10/08 00:01:30;;;;;;;16.73;9.40;;;10.00;99.90;;;;;;5028547;28;20433;-39
2021/10/08 00:03:56;;;;;;;12.20;9.67;;;10.00;99.90;;;;;;5028632;28;20483;-39
2021/10/08 00:06:22;;;;;;;12.90;9.80;;;10.30;99.90;;;;;;5028776;28;20432;-39
2021/10/08 00:08:48;;;;;;;11.33;8.70;;;10.30;99.90;;;;;;5027400;28;20201;-39
2021/10/08 00:11:14;;;;;;;13.80;9.43;;;10.20;99.90;;;;;;5023175;28;20426;-39
2021/10/08 00:13:40;;;;;;;11.90;9.40;;;10.30;99.90;;;;;;5023997;28;20425;-38
2021/10/08 00:16:06;;;;;;;12.03;9.23;;;10.50;99.90;;;;;;5028861;28;20958;-39
2021/10/08 00:18:33;;;;;;;12.93;8.83;;;10.20;99.90;;;;;;5028254;28;20273;-39
2021/10/08 00:20:59;;;;;;;11.80;9.07;;;10.20;99.90;;;;;;5039555;28;20209;-39
2021/10/08 00:23:25;;;;;;;11.27;9.17;;;10.20;99.90;;;;;;5047233;28;20459;-38
2021/10/08 00:25:51;;;;;;;11.60;9.77;;;10.20;99.90;;;;;;5045962;28;20493;-39
2021/10/08 00:28:17;;;;;;;12.70;9.33;;;10.20;99.90;;;;;;5017664;28;20209;-39
2021/10/08 00:30:42;;;;;;;12.23;9.07;;;10.20;99.90;;;;;;5028573;28;20190;-39
2021/10/08 00:33:08;;;;;;;10.63;8.80;;;10.40;99.90;;;;;;5027554;28;20186;-39
2021/10/08 00:35:34;;;;;;;12.27;9.00;;;10.20;99.90;;;;;;5028377;28;20190;-39
2021/10/08 00:38:03;;;;;;;13.73;9.90;;;10.00;99.90;;;;;;5028029;28;20189;-39
2021/10/08 00:40:31;;;;;;;11.33;8.57;;;9.90;99.90;;;;;;5028253;28;20217;-38
2021/10/08 00:42:57;;;;;;;11.63;8.67;;;10.00;99.90;;;;;;5015859;28;20476;-39
2021/10/08 00:45:23;;;;;;;12.80;9.13;;;9.90;99.90;;;;;;5027953;28;20422;-39
2021/10/08 00:48:00;;;;;;;10.87;7.90;;;9.90;99.90;;;;;;5026926;28;20193;-39
2021/10/08 00:50:26;;;;;;;11.00;8.20;;;9.80;99.90;;;;;;5027854;28;20198;-39
2021/10/08 00:52:51;;;;;;;10.73;8.03;;;9.70;99.90;;;;;;5027625;28;20425;-38
2021/10/08 00:55:17;;;;;;;12.80;7.60;;;9.70;99.90;;;;;;5028168;28;20417;-39
2021/10/08 00:57:47;;;;;;;10.37;7.70;;;9.60;99.90;;;;;;5018055;28;20665;-40
2021/10/08 01:00:14;;;;;;;10.97;7.57;;;9.40;99.90;;;;;;5027599;28;20221;-39
2021/10/08 01:02:40;;;;;;;10.10;8.00;;;9.20;99.90;;;;;;5026771;28;20841;-39
2021/10/08 01:05:06;;;;;;;8.53;7.33;;;9.10;99.90;;;;;;5027520;28;20413;-39
2021/10/08 01:07:32;;;;;;;8.60;7.20;;;9.20;99.90;;;;;;5027901;28;20206;-39
2021/10/08 01:09:57;;;;;;;11.10;8.13;;;9.10;99.90;;;;;;5027092;28;20900;-39
2021/10/08 01:12:23;;;;;;;9.40;7.50;;;9.00;99.90;;;;;;5019884;28;20194;-39
2021/10/08 01:14:49;;;;;;;10.43;8.23;;;9.10;99.90;;;;;;5026257;28;20183;-38
2021/10/08 01:17:16;;;;;;;9.90;7.87;;;9.00;99.90;;;;;;5027543;28;20229;-38
2021/10/08 01:19:43;;;;;;;9.90;7.97;;;9.10;99.90;;;;;;5027049;28;20221;-39
2021/10/08 01:22:09;;;;;;;10.37;8.23;;;9.30;99.90;;;;;;5034786;28;20787;-38
2021/10/08 01:24:35;;;;;;;10.07;7.77;;;9.50;99.90;;;;;;5046706;28;20424;-39
2021/10/08 01:27:03;;;;;;;10.20;8.30;;;9.20;99.90;;;;;;5033187;28;20476;-38
2021/10/08 01:29:29;;;;;;;10.07;7.40;;;9.20;99.90;;;;;;5022157;28;20421;-39
2021/10/08 01:31:54;;;;;;;8.73;7.27;;;9.40;99.90;;;;;;5026989;28;20528;-39
2021/10/08 01:34:20;;;;;;;8.53;7.23;;;9.40;99.90;;;;;;5026401;28;20547;-39
2021/10/08 01:36:46;;;;;;;10.90;7.13;;;9.30;99.90;;;;;;5026736;28;20194;-40
2021/10/08 01:39:11;;;;;;;10.30;8.27;;;9.30;99.90;;;;;;5026821;28;20198;-39
2021/10/08 01:41:37;;;;;;;9.03;7.77;;;9.40;99.90;;;;;;5023963;28;20186;-39
2021/10/08 01:44:03;;;;;;;8.03;6.77;;;9.40;99.90;;;;;;5014598;28;20214;-39
2021/10/08 01:46:29;;;;;;;9.77;8.17;;;9.00;99.90;;;;;;5025859;28;20826;-39
2021/10/08 01:48:55;;;;;;;14.90;7.33;;;9.00;99.90;;;;;;5027416;28;20417;-39
2021/10/08 01:51:21;;;;;;;9.90;7.77;;;9.00;99.90;;;;;;5026817;28;20182;-39
2021/10/08 01:53:47;;;;;;;7.80;7.00;;;9.20;99.90;;;;;;5025574;28;20436;-39
2021/10/08 01:56:12;;;;;;;10.07;7.83;;;9.20;99.90;;;;;;5026897;28;20213;-39
2021/10/08 01:58:38;;;;;;;9.90;7.50;;;9.10;99.90;;;;;;5013865;28;20186;-38
2021/10/08 02:01:04;;;;;;;10.00;7.57;;;8.90;99.90;;;;;;5026464;28;20467;-39
2021/10/08 02:03:29;;;;;;;9.73;7.27;;;9.00;99.90;;;;;;5026021;28;20536;-39
2021/10/08 02:05:55;;;;;;;9.60;7.83;;;8.90;99.90;;;;;;5026715;28;20183;-39
2021/10/08 02:08:21;;;;;;;9.30;7.33;;;9.20;99.90;;;;;;5026370;28;20188;-39
2021/10/08 02:10:47;;;;;;;8.90;8.00;;;9.10;99.90;;;;;;5025325;28;20191;-38
2021/10/08 02:13:12;;;;;;;12.07;7.00;;;9.00;99.90;;;;;;5015181;28;20622;-39
2021/10/08 02:15:38;;;;;;;10.13;7.13;;;9.00;99.90;;;;;;5026133;28;20189;-39
2021/10/08 02:18:03;;;;;;;11.30;8.30;;;9.00;99.90;;;;;;5025992;28;20708;-39
2021/10/08 02:20:29;;;;;;;10.80;7.97;;;9.20;99.90;;;;;;5029708;28;20723;-38
2021/10/08 02:22:55;;;;;;;10.10;7.73;;;9.00;99.90;;;;;;5038408;28;20276;-39
2021/10/08 02:25:21;;;;;;;9.47;7.83;;;9.10;99.90;;;;;;5045213;28;20730;-38
2021/10/08 02:27:46;;;;;;;8.97;7.40;;;9.00;99.90;;;;;;5034898;28;20187;-38
2021/10/08 02:30:13;;;;;;;11.53;7.00;;;8.90;99.90;;;;;;5025896;28;20718;-39
2021/10/08 02:32:38;;;;;;;9.30;7.30;;;8.90;99.90;;;;;;5025923;28;20186;-39
2021/10/08 02:35:05;;;;;;;9.10;7.63;;;8.70;99.90;;;;;;5025446;28;20943;-39
2021/10/08 02:37:31;;;;;;;8.57;6.93;;;8.90;99.90;;;;;;5025743;28;20194;-38
2021/10/08 02:39:57;;;;;;;10.17;7.03;;;8.90;99.90;;;;;;5025769;28;20427;-39
2021/10/08 02:42:22;;;;;;;8.20;6.83;;;9.00;99.90;;;;;;5021554;28;20724;-38
2021/10/08 02:44:48;;;;;;;9.00;7.00;;;8.80;99.90;;;;;;5022021;28;20421;-39
2021/10/08 02:47:14;;;;;;;9.77;7.40;;;8.80;99.90;;;;;;5024685;28;20189;-39
2021/10/08 02:49:39;;;;;;;10.83;7.60;;;8.60;99.90;;;;;;5025644;28;20549;-39
2021/10/08 02:52:06;;;;;;;7.40;6.50;;;8.50;99.90;;;;;;5025574;28;20595;-38
2021/10/08 02:54:32;;;;;;;7.60;6.73;;;8.60;99.90;;;;;;5025260;28;20194;-39
2021/10/08 02:56:57;;;;;;;10.83;7.00;;;8.70;99.90;;;;;;5024586;28;20441;-39
2021/10/08 02:59:23;;;;;;;7.97;7.13;;;8.70;99.90;;;;;;5017497;28;20659;-39
2021/10/08 03:01:49;;;;;;;10.00;6.43;;;8.60;99.90;;;;;;5025340;28;20190;-39
2021/10/08 03:04:14;;;;;;;8.60;6.60;;;8.80;99.90;;;;;;5025034;28;20210;-39
2021/10/08 03:06:40;;;;;;;7.50;6.70;;;8.70;99.90;;;;;;5025331;28;20587;-39
2021/10/08 03:09:06;;;;;;;8.50;7.27;;;8.50;99.90;;;;;;5025743;28;20194;-38
2021/10/08 03:11:31;;;;;;;7.60;6.70;;;8.60;99.90;;;;;;5025769;28;20193;-39
2021/10/08 03:13:57;;;;;;;7.40;6.30;;;8.40;99.90;;;;;;5015594;28;20190;-39
2021/10/08 03:16:23;;;;;;;7.23;6.50;;;8.40;99.90;;;;;;5024101;28;20194;-39
2021/10/08 03:18:48;;;;;;;7.70;6.00;;;8.20;99.90;;;;;;5025689;28;20664;-38
2021/10/08 03:21:14;;;;;;;7.10;6.40;;;8.20;99.90;;;;;;5025661;28;20243;-39
2021/10/08 03:23:40;;;;;;;7.37;6.03;;;8.40;99.90;;;;;;5044844;28;20213;-38
2021/10/08 03:26:05;;;;;;;7.47;6.40;;;8.10;99.90;;;;;;5047474;28;20184;-39
2021/10/08 03:28:31;;;;;;;6.77;6.07;;;8.10;99.90;;;;;;5026747;28;20658;-39
2021/10/08 03:30:57;;;;;;;7.37;6.20;;;8.00;99.90;;;;;;5023932;28;20190;-39
2021/10/08 03:33:22;;;;;;;6.40;5.70;;;8.00;99.90;;;;;;5028428;28;20680;-38
2021/10/08 03:35:48;;;;;;;7.07;6.37;;;7.80;99.90;;;;;;5028887;28;20678;-38
2021/10/08 03:38:17;;;;;;;6.87;6.07;;;8.10;99.90;;;;;;5027461;28;20191;-39
2021/10/08 03:40:47;;;;;;;7.07;6.03;;;8.00;99.90;;;;;;5027877;28;20194;-39
2021/10/08 03:43:13;;;;;;;6.33;5.50;;;8.10;99.90;;;;;;5020241;28;20820;-38
2021/10/08 03:45:49;;;;;;;7.27;6.03;;;8.10;99.90;;;;;;5025231;28;20421;-38
2021/10/08 03:51:04;;;;;;;8.17;6.47;;;8.00;99.90;;;;;;5028929;28;20452;-39
2021/10/08 03:53:30;;;;;;;6.90;5.77;;;8.00;99.90;;;;;;5028203;28;20970;-39
2021/10/08 03:55:56;;;;;;;7.53;6.00;;;7.90;99.90;;;;;;5029194;28;20887;-39
2021/10/08 03:58:22;;;;;;;8.43;6.70;;;7.80;99.90;;;;;;5021454;28;20457;-38
2021/10/08 04:00:48;;;;;;;11.23;6.40;;;7.80;99.90;;;;;;5028224;28;20198;-39
2021/10/08 04:03:14;;;;;;;6.40;5.80;;;7.70;99.90;;;;;;5027732;28;20304;-38
2021/10/08 04:05:40;;;;;;;6.83;5.70;;;7.80;99.90;;;;;;5029217;28;20520;-39
2021/10/08 04:08:06;;;;;;;8.13;5.77;;;7.90;99.90;;;;;;5028781;28;20190;-38
2021/10/08 04:10:31;;;;;;;6.07;5.40;;;7.90;99.90;;;;;;5029030;28;20487;-39
2021/10/08 04:12:57;;;;;;;7.90;5.57;;;8.00;99.90;;;;;;5023464;28;20218;-39
2021/10/08 04:15:22;;;;;;;7.23;5.03;;;7.70;99.90;;;;;;5021360;28;20198;-39
2021/10/08 04:17:48;;;;;;;6.20;5.00;;;7.70;99.90;;;;;;5028783;28;20661;-39
2021/10/08 04:20:14;;;;;;;5.57;5.03;;;7.50;99.90;;;;;;5033773;28;20194;-39
2021/10/08 04:22:40;;;;;;;5.47;4.87;;;7.40;99.90;;;;;;5046412;28;20727;-39
2021/10/08 04:25:07;;;;;;;7.20;5.83;;;7.60;99.90;;;;;;5047652;28;20507;-39
2021/10/08 04:27:32;;;;;;;6.13;5.53;;;7.70;99.90;;;;;;5048309;28;20186;-40
2021/10/08 04:29:58;;;;;;;5.97;5.10;;;7.70;99.90;;;;;;5017534;28;20425;-38
2021/10/08 04:32:24;;;;;;;5.77;5.17;;;7.80;99.90;;;;;;5028204;28;20689;-39
2021/10/08 04:34:49;;;;;;;7.00;5.40;;;7.90;99.90;;;;;;5027458;28;20174;-39
2021/10/08 04:37:15;;;;;;;6.20;5.37;;;7.90;99.90;;;;;;5027617;28;20178;-38
2021/10/08 04:39:40;;;;;;;6.27;5.63;;;7.80;99.90;;;;;;5028594;28;20185;-39
2021/10/08 04:42:06;;;;;;;7.80;6.23;;;7.70;99.90;;;;;;5028028;28;20197;-39
2021/10/08 04:44:33;;;;;;;8.00;5.73;;;7.60;99.90;;;;;;5016963;28;20218;-39
2021/10/08 04:46:59;;;;;;;7.73;6.20;;;7.60;99.90;;;;;;5026232;28;20178;-38
2021/10/08 04:49:26;;;;;;;5.80;5.20;;;7.70;99.90;;;;;;5046041;28;20474;-38
2021/10/08 04:51:51;;;;;;;6.73;5.30;;;7.60;99.90;;;;;;5042332;28;20453;-39
2021/10/08 04:54:17;;;;;;;8.30;5.80;;;7.50;99.90;;;;;;5046077;28;20458;-39
2021/10/08 04:56:43;;;;;;;6.47;5.40;;;7.50;99.90;;;;;;5047738;28;20551;-39
2021/10/08 04:59:08;;;;;;;8.50;6.20;;;7.50;99.90;;;;;;5029307;28;20649;-39
2021/10/08 05:01:34;;;;;;;6.20;5.00;;;7.70;99.90;;;;;;5027374;28;20187;-39
2021/10/08 05:03:59;;;;;;;6.43;5.70;;;7.90;99.90;;;;;;5027101;28;20315;-39
2021/10/08 05:06:25;;;;;;;6.40;5.50;;;7.80;99.90;;;;;;5027644;28;20178;-38
2021/10/08 05:08:51;;;;;;;7.50;6.03;;;7.70;99.90;;;;;;5027575;28;20210;-39
2021/10/08 05:11:16;;;;;;;6.90;5.50;;;7.50;99.90;;;;;;5028310;28;20191;-38
2021/10/08 05:13:42;;;;;;;7.50;6.00;;;7.60;99.90;;;;;;5020071;28;20227;-39
2021/10/08 05:16:08;;;;;;;10.40;6.10;;;7.40;99.90;;;;;;5023646;28;20218;-39
2021/10/08 05:18:34;;;;;;;7.13;5.40;;;7.70;99.90;;;;;;5027319;28;20186;-39
2021/10/08 05:21:00;;;;;;;7.30;6.03;;;7.60;99.90;;;;;;5027766;28;20436;-39
2021/10/08 05:23:25;;;;;;;9.60;6.30;;;7.70;99.90;;;;;;5034787;28;20213;-39
2021/10/08 05:25:51;;;;;;;8.33;5.80;;;7.40;99.90;;;;;;5046002;28;20668;-38
2021/10/08 05:28:16;;;;;;;6.77;5.23;;;7.40;99.90;;;;;;5043216;28;20182;-39
2021/10/08 05:30:42;;;;;;;6.87;5.40;;;7.50;99.90;;;;;;5019768;28;20182;-38
2021/10/08 05:33:08;;;;;;;6.90;5.40;;;7.60;99.90;;;;;;5026337;28;20194;-38
2021/10/08 05:35:33;;;;;;;7.40;5.83;;;7.50;99.90;;;;;;5027415;28;20380;-39
2021/10/08 05:37:59;;;;;;;9.87;6.50;;;7.50;99.90;;;;;;5027018;28;20217;-39
2021/10/08 05:40:25;;;;;;;6.80;4.90;;;7.60;99.90;;;;;;5027191;28;20195;-39
2021/10/08 05:42:51;;;;;;;6.70;5.87;;;7.70;99.90;;;;;;5026184;28;20276;-38
2021/10/08 05:45:16;;;;;;;8.40;5.23;;;7.80;99.90;;;;;;5020449;28;20460;-39
2021/10/08 05:47:42;;;;;;;7.13;5.60;;;7.90;99.90;;;;;;5025643;28;20537;-38
2021/10/08 05:50:08;;;;;;;6.17;5.47;;;8.00;99.90;;;;;;5026170;28;20190;-38
2021/10/08 05:52:34;;;;;;;7.93;5.60;;;7.80;99.90;;;;;;5027045;28;20646;-39
2021/10/08 05:54:59;;;;;;;7.27;6.33;;;8.20;99.90;;;;;;5026333;28;20413;-38
2021/10/08 05:57:25;;;;;;;7.23;5.10;;;8.20;99.90;;;;;;5026393;28;20743;-39
2021/10/08 05:59:51;;;;;;;6.90;5.53;;;8.20;99.90;;;;;;5014985;28;20206;-39
2021/10/08 06:02:16;;;;;;;6.43;5.73;;;8.10;99.90;;;;;;5023434;28;20220;-39
2021/10/08 06:04:42;;;;;;;7.13;5.70;;;8.20;99.90;;;;;;5025757;28;20261;-39
2021/10/08 06:07:10;;;;;;;7.23;6.50;;;8.30;99.90;;;;;;5026584;28;20521;-39
2021/10/08 06:09:36;;;;;;;7.23;5.57;;;8.00;99.90;;;;;;5027274;28;20182;-39
2021/10/08 06:12:02;;;;;;;6.93;6.10;;;8.10;99.90;;;;;;5026444;28;20424;-38
2021/10/08 06:14:28;;;;;;;7.30;5.90;;;8.30;99.90;;;;;;5024194;28;20440;-38
2021/10/08 06:16:54;;;;;;;6.67;5.97;;;8.40;99.90;;;;;;5024357;28;20417;-38
2021/10/08 06:19:19;;;;;;;7.90;6.00;;;8.50;99.90;;;;;;5026196;28;20190;-39
2021/10/08 06:21:45;;;;;;;7.20;6.17;;;8.30;99.90;;;;;;5044382;28;20189;-38
2021/10/08 06:24:11;;;;;;;8.90;6.63;;;8.50;99.90;;;;;;5038418;28;20210;-38
2021/10/08 06:26:36;;;;;;;6.50;5.63;;;8.50;99.90;;;;;;5045480;28;20451;-38
2021/10/08 06:29:02;;;;;;;8.37;5.87;;;8.40;99.90;;;;;;5037842;28;20249;-39
2021/10/08 06:31:28;;;;;;;6.97;5.50;;;8.50;99.90;;;;;;5019701;28;20206;-38
2021/10/08 06:33:54;;;;;;;6.40;5.53;;;8.60;99.90;;;;;;5025229;28;20229;-39
2021/10/08 06:36:19;;;;;;;6.70;6.00;;;8.70;99.90;;;;;;5025904;28;20425;-38
2021/10/08 06:38:45;;;;;;;7.60;5.90;;;8.60;99.90;;;;;;5025856;28;20251;-39
2021/10/08 06:41:11;;;;;;;10.40;5.90;;;8.80;99.90;;;;;;5025565;28;20178;-38
2021/10/08 06:43:36;;;;;;;6.13;5.40;;;8.50;99.90;;;;;;5025351;28;20218;-39
2021/10/08 06:46:02;;;;;;;6.40;5.73;;;8.50;99.90;;;;;;5017498;28;20349;-39
2021/10/08 06:48:28;;;;;;;6.97;5.60;;;8.50;99.90;;;;;;5024866;28;20186;-39
2021/10/08 06:50:54;;;;;;;8.87;6.20;;;8.80;99.90;;;;;;5025819;28;20550;-39
2021/10/08 06:53:19;;;;;;;7.83;5.50;;;8.80;99.90;;;;;;5025066;28;20565;-39
2021/10/08 06:55:47;;;;;;;6.50;5.67;;;8.70;99.90;;;;;;5025594;28;20512;-39
2021/10/08 06:58:12;;;;;;;7.73;6.93;;;9.00;99.90;;;;;;5023382;28;20202;-39
2021/10/08 07:00:38;;;;;;;7.30;6.43;;;9.10;99.90;;;;;;5014281;28;20498;-39
2021/10/08 07:03:04;;;;;;;7.30;5.80;;;9.20;99.90;;;;;;5024298;28;20210;-38
2021/10/08 07:05:29;;;;;;;6.20;5.50;;;9.20;99.90;;;;;;5023596;28;20186;-38
2021/10/08 07:07:55;;;;;;;8.90;6.40;;;9.30;99.90;;;;;;5025343;28;20182;-39
2021/10/08 07:10:21;;;;;;;10.50;6.10;;;9.40;99.90;;;;;;5024751;28;20489;-39
2021/10/08 07:12:47;;;;;;;7.37;5.87;;;9.40;99.90;;;;;;5024177;28;20202;-38
2021/10/08 07:15:18;;;;;;;8.07;5.87;;;9.50;99.90;;;;;;5016871;28;20793;-39
2021/10/08 07:17:48;;;;;;;7.97;5.70;;;9.70;99.90;;;;;;5025284;28;20311;-39
2021/10/08 07:20:16;;;;;;;7.47;6.13;;;9.90;99.90;;;;;;5030088;28;20849;-39
2021/10/08 07:22:42;;;;;;;7.73;5.90;;;10.00;99.90;;;;;;5042837;28;20463;-39
2021/10/08 07:25:08;;;;;;;7.67;6.87;;;10.40;99.90;;;;;;5043365;28;20436;-39
2021/10/08 07:27:36;;;;;;;6.10;5.50;;;10.50;99.90;;;;;;5045480;28;20258;-39
2021/10/08 07:30:03;;;;;;;8.27;5.97;;;10.80;99.90;;;;;;5028565;28;20835;-39
2021/10/08 07:32:28;;;;;;;7.10;5.70;;;11.10;99.90;;;;;;5024007;28;20620;-40
2021/10/08 07:34:55;;;;;;;7.40;5.87;;;11.40;99.90;;;;;;5024504;28;20421;-39
2021/10/08 07:37:21;;;;;;;6.97;5.93;;;11.70;99.90;;;;;;5025241;28;20656;-39
2021/10/08 07:39:47;;;;;;;6.93;5.60;;;12.00;99.90;;;;;;5025157;28;20421;-40
2021/10/08 07:42:12;;;;;;;7.67;5.70;;;12.30;99.90;;;;;;5025225;28;20417;-39
2021/10/08 07:44:39;;;;;;;14.07;5.63;;;12.50;99.90;;;;;;5020109;28;20281;-39
2021/10/08 07:47:04;;;;;;;7.50;5.80;;;12.70;99.90;;;;;;5018851;28;20298;-41
2021/10/08 07:49:30;;;;;;;7.30;5.67;;;12.90;99.90;;;;;;5025201;28;20542;-39
2021/10/08 07:51:56;;;;;;;7.20;5.10;;;13.20;99.90;;;;;;5025013;28;20182;-39
2021/10/08 07:54:21;;;;;;;6.27;5.47;;;13.40;99.90;;;;;;5024522;28;20391;-39
2021/10/08 07:56:47;;;;;;;7.63;5.67;;;13.60;99.90;;;;;;5024095;28;20210;-39
2021/10/08 07:59:13;;;;;;;8.63;5.87;;;13.80;99.90;;;;;;5024455;28;20498;-39
2021/10/08 08:01:38;;;;;;;8.03;6.00;;;14.00;99.90;;;;;;5016635;28;20602;-39
2021/10/08 08:04:04;;;;;;;7.53;6.07;;;14.30;99.90;;;;;;5024628;28;20210;-39
2021/10/08 08:06:30;;;;;;;7.00;6.30;;;14.40;99.90;;;;;;5025529;28;20225;-39
2021/10/08 08:08:56;;;;;;;7.33;6.13;;;14.60;99.90;;;;;;5025162;28;20190;-40
2021/10/08 08:11:22;;;;;;;7.47;6.43;;;14.70;99.90;;;;;;5025243;28;20604;-39
2021/10/08 08:13:47;;;;;;;8.77;6.90;;;14.80;99.90;;;;;;5026272;28;20425;-42
2021/10/08 08:16:13;;;;;;;7.43;6.27;;;14.90;99.90;;;;;;5013876;28;20285;-39
2021/10/08 08:18:39;;;;;;;7.67;6.87;;;15.10;99.90;;;;;;5028229;28;20236;-40
2021/10/08 08:21:04;;;;;;;7.93;6.93;;;15.10;99.90;;;;;;5040977;28;20277;-39
2021/10/08 08:23:30;;;;;;;6.23;5.67;;;15.20;99.90;;;;;;5047261;28;20221;-39
2021/10/08 08:25:56;;;;;;;6.37;5.77;;;15.30;99.90;;;;;;5048376;28;20239;-41
2021/10/08 08:28:22;;;;;;;7.40;5.83;;;15.40;99.90;;;;;;5047883;28;20228;-40
2021/10/08 08:30:48;;;;;;;7.60;6.80;;;15.50;99.90;;;;;;5027200;28;20665;-39
2021/10/08 08:33:14;;;;;;;7.30;6.50;;;15.60;99.90;;;;;;5026251;28;20961;-40
2021/10/08 08:35:40;;;;;;;7.90;6.17;;;15.60;99.90;;;;;;5028259;28;20417;-40
2021/10/08 08:38:05;;;;;;;7.00;6.30;;;15.70;99.90;;;;;;5028187;28;20208;-40
2021/10/08 08:40:31;;;;;;;7.50;6.43;;;15.70;99.90;;;;;;5028208;28;20253;-39
2021/10/08 08:42:59;;;;;;;8.07;6.80;;;15.80;99.90;;;;;;5027621;28;20584;-39
2021/10/08 08:45:25;;;;;;;10.73;8.00;;;15.90;99.90;;;;;;5021334;28;20801;-39
2021/10/08 08:48:03;;;;;;;7.30;6.47;;;16.00;99.90;;;;;;5021619;28;20413;-39
2021/10/08 08:50:31;;;;;;;7.20;6.50;;;16.10;99.90;;;;;;5027434;28;20413;-40
2021/10/08 08:52:57;;;;;;;8.27;7.13;;;16.20;99.90;;;;;;5026391;28;20440;-39
2021/10/08 08:55:22;;;;;;;7.67;6.83;;;16.30;99.90;;;;;;5027951;28;20819;-40
2021/10/08 08:57:49;;;;;;;7.47;6.33;;;16.30;99.90;;;;;;5027804;28;20441;-41
2021/10/08 09:00:17;;;;;;;8.17;7.43;;;16.30;99.90;;;;;;5023059;28;20249;-40
2021/10/08 09:02:44;;;;;;;7.40;6.60;;;16.30;99.90;;;;;;5019479;28;20467;-42
2021/10/08 09:05:19;;;;;;;8.60;7.70;;;16.30;99.90;;;;;;5027365;28;20432;-40
2021/10/08 09:07:45;;;;;;;9.57;7.00;;;16.50;99.90;;;;;;5027878;28;20417;-40
2021/10/08 09:10:12;;;;;;;8.67;7.10;;;16.70;99.90;;;;;;5027614;28;20429;-40
2021/10/08 09:12:40;;;;;;;8.97;7.53;;;16.80;99.90;;;;;;5027219;28;20507;-40
2021/10/08 09:15:07;;;;;;;7.47;6.77;;;16.80;99.90;;;;;;5024166;28;20443;-39
2021/10/08 09:17:33;;;;;;;7.97;6.80;;;16.90;99.90;;;;;;5018907;28;20540;-40
2021/10/08 09:20:00;;;;;;;7.97;6.47;;;17.00;99.90;;;;;;5030234;28;21227;-42
2021/10/08 09:22:36;;;;;;;7.93;7.07;;;17.10;99.90;;;;;;5047097;28;20652;-40
2021/10/08 09:25:16;;;;;;;7.73;6.93;;;17.20;99.90;;;;;;5037159;28;20420;-40
2021/10/08 09:27:45;;;;;;;8.30;7.50;;;17.40;99.90;;;;;;5047051;28;20422;-41
2021/10/08 09:30:12;;;;;;;8.20;6.90;;;17.60;99.90;;;;;;5041105;28;20424;-40
2021/10/08 09:32:41;;;;;;;8.03;7.23;;;17.70;99.90;;;;;;5020580;28;20432;-40
2021/10/08 09:35:08;;;;;;;11.97;7.33;;;17.80;99.90;;;;;;5027084;28;20416;-40
2021/10/08 09:37:35;;;;;;;8.17;7.17;;;17.90;99.90;;;;;;5027132;28;20783;-39
2021/10/08 09:40:01;;;;;;;8.60;7.00;;;18.00;99.90;;;;;;5027077;28;20512;-40
2021/10/08 09:42:35;;;;;;;7.83;7.03;;;18.10;99.90;;;;;;5026347;28;20431;-40
2021/10/08 09:45:03;;;;;;;8.67;7.03;;;18.10;99.90;;;;;;5025801;28;20418;-42
2021/10/08 09:47:29;;;;;;;7.63;6.80;;;18.20;99.90;;;;;;5020436;28;20413;-41
2021/10/08 09:50:12;;;;;;;9.03;7.43;;;18.30;99.90;;;;;;5026403;28;20429;-41
2021/10/08 09:52:38;;;;;;;7.93;7.13;;;18.30;99.90;;;;;;5026813;28;20571;-40
2021/10/08 09:55:06;;;;;;;8.23;7.43;;;18.30;99.90;;;;;;5026732;28;20420;-41
2021/10/08 09:57:52;;;;;;;10.07;7.10;;;18.30;99.90;;;;;;5026636;28;20448;-40
2021/10/08 10:01:04;;;;;;;7.30;6.60;;;18.30;99.90;;;;;;5024339;28;20554;-40
2021/10/08 10:03:31;;;;;;;9.73;8.23;;;18.40;99.90;;;;;;5024299;28;21236;-42
2021/10/08 10:06:00;;;;;;;8.47;7.60;;;18.40;99.90;;;;;;5026876;28;20532;-39
2021/10/08 10:08:26;;;;;;;9.47;7.33;;;18.30;99.90;;;;;;5025321;28;20870;-39
2021/10/08 10:10:54;;;;;;;8.77;7.50;;;18.30;99.90;;;;;;5026683;28;20895;-42
2021/10/08 10:13:22;;;;;;;7.33;6.63;;;18.30;99.90;;;;;;5025793;28;20432;-39
2021/10/08 10:15:48;;;;;;;12.27;7.17;;;18.30;99.90;;;;;;5019916;28;20461;-41
2021/10/08 10:18:19;;;;;;;11.50;6.70;;;18.30;99.90;;;;;;5022840;28;20489;-39
2021/10/08 10:20:48;;;;;;;8.60;7.70;;;18.30;99.90;;;;;;5024755;28;20788;-40
2021/10/08 10:23:15;;;;;;;8.97;7.17;;;18.20;99.90;;;;;;5042608;28;20797;-40
2021/10/08 10:25:42;;;;;;;10.47;7.60;;;18.10;99.90;;;;;;5039884;28;20481;-39
2021/10/08 10:28:07;;;;;;;10.20;7.80;;;18.10;99.90;;;;;;5045889;28;20421;-40
2021/10/08 10:30:34;;;;;;;12.10;7.97;;;18.10;99.90;;;;;;5041430;28;20416;-42
2021/10/08 10:33:01;;;;;;;12.07;9.07;;;18.20;99.90;;;;;;5015545;28;20194;-40
2021/10/08 10:35:46;;;;;;;8.87;7.97;;;18.10;99.90;;;;;;5025255;28;20857;-40
2021/10/08 10:38:33;;;;;;;9.90;7.70;;;18.00;99.90;;;;;;5026019;28;20523;-40
2021/10/08 10:41:07;;;;;;;10.03;7.57;;;17.90;99.90;;;;;;5025514;28;20505;-43
2021/10/08 10:43:35;;;;;;;7.87;7.07;;;17.80;99.90;;;;;;5025281;28;20459;-41
2021/10/08 10:46:24;;;;;;;7.50;6.60;;;17.80;99.90;;;;;;5020376;28;21012;-41
2021/10/08 10:52:01;;;;;;;7.90;7.10;;;17.60;99.90;;;;;;5023587;28;20845;-47
2021/10/08 10:54:42;;;;;;;8.57;7.67;;;17.50;99.90;;;;;;5025645;28;20425;-40
2021/10/08 10:57:17;;;;;;;7.70;7.00;;;17.40;99.90;;;;;;5025532;28;20447;-39
2021/10/08 10:59:44;;;;;;;9.07;8.27;;;17.40;99.90;;;;;;5025583;28;20424;-40
2021/10/08 11:02:11;;;;;;;12.33;8.17;;;17.40;99.90;;;;;;5017724;28;20472;-41
2021/10/08 11:04:43;;;;;;;10.60;7.70;;;17.30;99.90;;;;;;5024826;28;20456;-41
2021/10/08 11:07:14;;;;;;;9.17;8.17;;;17.30;99.90;;;;;;5025721;28;20427;-39
2021/10/08 11:09:43;;;;;;;8.57;7.77;;;17.30;99.90;;;;;;5025620;28;20425;-39
2021/10/08 11:12:34;;;;;;;10.27;8.67;;;17.40;99.90;;;;;;5025287;28;20924;-41
2021/10/08 11:15:20;;;;;;;8.90;8.00;;;17.50;99.90;;;;;;5025000;28;20416;-39
2021/10/08 11:17:59;;;;;;;13.20;7.77;;;17.70;99.90;;;;;;5014711;28;20453;-43
2021/10/08 11:20:25;;;;;;;9.13;8.03;;;17.80;99.90;;;;;;5025938;28;20490;-39
2021/10/08 11:22:55;;;;;;;8.20;7.40;;;17.90;99.90;;;;;;5037978;28;21010;-43
2021/10/08 11:25:20;;;;;;;8.83;7.93;;;18.00;99.90;;;;;;5042583;28;20697;-44
2021/10/08 11:27:47;;;;;;;10.23;8.17;;;18.10;99.90;;;;;;5044983;28;20464;-40
2021/10/08 11:30:13;;;;;;;8.10;7.30;;;18.20;99.90;;;;;;5045697;28;20517;-39
2021/10/08 11:32:48;;;;;;;8.70;7.90;;;18.10;99.90;;;;;;5017655;28;20915;-45
2021/10/08 11:35:18;;;;;;;9.43;8.53;;;18.20;99.90;;;;;;5025178;28;20887;-40
2021/10/08 11:37:47;;;;;;;9.33;8.03;;;18.40;99.90;;;;;;5025392;28;20972;-39
2021/10/08 11:40:15;;;;;;;8.43;7.50;;;18.40;99.90;;;;;;5024205;28;20421;-39
2021/10/08 11:42:49;;;;;;;8.07;7.23;;;18.50;99.90;;;;;;5025138;28;20679;-40
2021/10/08 11:45:17;;;;;;;11.20;7.77;;;18.60;99.90;;;;;;5025387;28;20439;-41
2021/10/08 11:52:40;;;;;;;8.57;7.77;;;18.80;99.90;;;;;;5028944;28;20194;-40
2021/10/08 11:55:12;;;;;;;8.20;7.13;;;18.90;99.90;;;;;;5029255;28;20794;-40
2021/10/08 11:57:49;;;;;;;8.23;7.10;;;18.90;99.90;;;;;;5028782;28;20626;-40
2021/10/08 12:00:15;;;;;;;7.80;7.00;;;18.90;99.90;;;;;;5028876;28;20916;-40
2021/10/08 12:02:53;;;;;;;7.40;6.53;;;19.00;99.90;;;;;;5022960;28;20473;-41
2021/10/08 12:05:19;;;;;;;7.07;6.47;;;19.10;99.90;;;;;;5028669;28;20648;-45
2021/10/08 12:07:58;;;;;;;7.17;6.50;;;19.10;99.90;;;;;;5028608;28;20417;-40
2021/10/08 12:10:24;;;;;;;7.50;6.27;;;19.20;99.90;;;;;;5027461;28;20183;-41
2021/10/08 12:12:55;;;;;;;8.27;7.50;;;19.20;99.90;;;;;;5028325;28;20436;-39
2021/10/08 12:15:32;;;;;;;8.00;7.20;;;19.20;99.90;;;;;;5028452;28;20202;-40
2021/10/08 12:17:59;;;;;;;7.67;6.87;;;19.30;99.90;;;;;;5020389;28;20799;-40
2021/10/08 12:20:28;;;;;;;7.90;7.10;;;19.30;99.90;;;;;;5032623;28;20431;-40
2021/10/08 12:23:23;;;;;;;7.60;6.80;;;19.40;99.90;;;;;;5041118;28;20470;-41
2021/10/08 12:25:52;;;;;;;8.00;6.20;;;19.40;99.90;;;;;;5037671;28;20504;-41
2021/10/08 12:28:23;;;;;;;7.33;6.63;;;19.40;99.90;;;;;;5046197;28;20409;-40
2021/10/08 12:31:09;;;;;;;6.47;5.87;;;19.40;99.90;;;;;;5048312;28;20424;-43
2021/10/08 12:33:40;;;;;;;7.80;6.77;;;19.50;99.90;;;;;;5019085;28;20429;-42
2021/10/08 12:36:27;;;;;;;7.47;6.87;;;19.50;99.90;;;;;;5028011;28;20421;-40
2021/10/08 12:39:04;;;;;;;7.30;6.70;;;19.50;99.90;;;;;;5028597;28;20851;-41
2021/10/08 12:41:55;;;;;;;9.70;6.70;;;19.40;99.90;;;;;;5028313;28;20432;-41
2021/10/08 12:44:26;;;;;;;6.30;5.70;;;19.30;99.90;;;;;;5027470;28;20472;-47
2021/10/08 12:47:13;;;;;;;8.53;7.57;;;19.40;99.90;;;;;;5020750;28;20944;-40
2021/10/08 12:49:50;;;;;;;7.30;6.70;;;19.40;99.90;;;;;;5020381;28;20457;-39
2021/10/08 12:52:30;;;;;;;7.60;6.80;;;19.40;99.90;;;;;;5027587;28;20577;-39
2021/10/08 12:55:21;;;;;;;9.13;5.83;;;19.50;99.90;;;;;;5027687;28;20512;-42
2021/10/08 12:58:24;;;;;;;7.90;7.20;;;19.60;99.90;;;;;;5014241;28;20455;-40
2021/10/08 13:01:00;;;;;;;10.53;7.40;;;19.60;99.90;;;;;;5026464;28;20555;-40
2021/10/08 13:03:35;;;;;;;6.53;5.93;;;19.70;99.90;;;;;;5016809;28;20465;-39
2021/10/08 13:06:02;;;;;;;6.40;5.80;;;19.70;99.90;;;;;;5027837;28;20977;-43